Time;durP1;ratioP1;P1;durP2;ratioP2;P2;SDS_P1;SDS_P2;PMS_P1;PMS_P2;Temp;Humidity;BMP_temperature;BMP_pressure;BME280_temperature;BME280_humidity;BME280_pressure;Samples;Min_cycle;Max_cycle;Signal;HPM_P1;HPM_P2
2023/10/05 00:02:24;;;;;;;2.63;2.07;;;13.00;99.90;;;13.33;nan;101612.63;4911351;29;20634;-66
2023/10/05 00:04:45;;;;;;;4.40;2.60;;;13.00;99.90;;;13.35;nan;101607.31;4915884;29;20627;-65
2023/10/05 00:07:23;;;;;;;6.07;2.60;;;13.00;99.90;;;13.36;nan;101619.47;4913907;29;20660;-67
2023/10/05 00:09:51;;;;;;;3.40;2.47;;;13.00;99.90;;;13.38;nan;101614.94;4905960;29;20646;-67
2023/10/05 00:12:21;;;;;;;3.13;2.53;;;13.10;99.90;;;13.36;nan;101612.44;4908717;29;21238;-66
2023/10/05 00:17:39;;;;;;;3.07;2.40;;;13.00;99.90;;;13.34;nan;101616.09;4909200;29;20677;-66
2023/10/05 00:20:33;;;;;;;3.70;2.13;;;13.00;99.90;;;13.36;nan;101614.22;4903672;29;20673;-66
2023/10/05 00:23:03;;;;;;;4.23;2.30;;;13.00;99.90;;;13.34;nan;101614.31;4913058;29;20725;-66
2023/10/05 00:25:33;;;;;;;4.30;2.13;;;13.00;99.90;;;13.35;nan;101610.78;4912779;29;20644;-66
2023/10/05 00:28:11;;;;;;;2.40;2.20;;;13.00;99.90;;;13.33;nan;101602.16;4912016;29;20654;-67
2023/10/05 00:30:39;;;;;;;7.57;2.90;;;13.00;99.90;;;13.28;nan;101601.63;4912665;29;21239;-66
2023/10/05 00:33:11;;;;;;;5.43;2.93;;;13.00;99.90;;;13.28;nan;101599.03;4908001;29;21623;-66
2023/10/05 00:35:38;;;;;;;2.93;2.70;;;13.00;99.90;;;13.27;nan;101604.38;4904916;29;20649;-67
2023/10/05 00:38:18;;;;;;;3.23;2.70;;;13.00;99.90;;;13.28;nan;101592.94;4912815;29;20712;-66
2023/10/05 00:41:19;;;;;;;3.00;2.43;;;13.00;99.90;;;13.28;nan;101590.31;4908845;29;20680;-67
2023/10/05 00:43:38;;;;;;;2.30;2.10;;;13.00;99.90;;;13.20;nan;101585.59;4895478;29;20647;-67
2023/10/05 00:46:06;;;;;;;3.57;2.60;;;12.90;99.90;;;13.24;nan;101589.69;4905001;29;20641;-66
2023/10/05 00:48:37;;;;;;;2.80;2.07;;;12.90;99.90;;;13.27;nan;101580.78;4909158;29;20642;-66
2023/10/05 00:51:09;;;;;;;3.27;2.23;;;13.00;99.90;;;13.27;nan;101589.47;4905140;29;20668;-67
2023/10/05 00:53:36;;;;;;;2.50;1.83;;;13.00;99.90;;;13.27;nan;101576.34;4912201;29;20649;-67
2023/10/05 00:56:12;;;;;;;8.63;2.20;;;13.00;99.90;;;13.27;nan;101580.78;4906024;29;20654;-67
2023/10/05 00:58:55;;;;;;;2.30;2.10;;;13.00;99.90;;;13.22;nan;101568.81;4909786;29;20653;-66
2023/10/05 01:01:23;;;;;;;2.93;2.60;;;12.90;99.90;;;13.20;nan;101569.88;4909728;29;21029;-66
2023/10/05 01:06:48;;;;;;;1.83;1.73;;;12.90;99.90;;;13.18;nan;101587.50;4911892;29;20684;-67
2023/10/05 01:14:46;;;;;;;3.50;2.20;;;12.80;99.90;;;13.04;nan;101561.31;4909926;29;20652;-67
2023/10/05 01:17:13;;;;;;;3.53;1.50;;;12.70;99.90;;;13.01;nan;101569.41;4905750;29;20657;-67
2023/10/05 01:19:43;;;;;;;1.90;1.60;;;12.70;99.90;;;13.02;nan;101568.47;4915265;29;20762;-67
2023/10/05 01:22:11;;;;;;;3.40;1.80;;;12.70;99.90;;;12.99;nan;101568.69;4914404;29;20645;-67
2023/10/05 01:24:38;;;;;;;1.83;1.73;;;12.70;99.90;;;12.98;nan;101559.97;4914689;29;20641;-68
2023/10/05 01:27:05;;;;;;;2.77;1.87;;;12.70;99.90;;;12.99;nan;101561.63;4914050;29;20674;-67
2023/10/05 01:29:32;;;;;;;4.87;2.27;;;12.70;99.90;;;13.00;nan;101567.72;4917146;29;20638;-68
2023/10/05 01:31:59;;;;;;;6.90;2.03;;;12.70;99.90;;;12.99;nan;101568.69;4916098;29;21191;-67
2023/10/05 01:34:26;;;;;;;3.90;1.97;;;12.70;99.90;;;12.96;nan;101567.09;4916535;29;20642;-67
2023/10/05 01:36:54;;;;;;;4.60;1.70;;;12.70;99.90;;;12.98;nan;101567.00;4917041;29;20653;-67
2023/10/05 01:39:22;;;;;;;3.93;2.83;;;12.70;99.90;;;12.95;nan;101559.31;4911680;29;20681;-67
2023/10/05 01:41:50;;;;;;;4.23;1.90;;;12.70;99.90;;;12.98;nan;101567.84;4906588;29;20677;-66
2023/10/05 01:44:17;;;;;;;2.23;2.00;;;12.70;99.90;;;13.01;nan;101566.78;4914506;29;20637;-67
2023/10/05 01:46:44;;;;;;;7.97;2.47;;;12.70;99.90;;;12.97;nan;101568.75;4916453;29;21262;-66
2023/10/05 01:49:11;;;;;;;2.60;2.10;;;12.70;99.90;;;12.95;nan;101575.03;4906381;29;20655;-65
2023/10/05 01:51:38;;;;;;;1.47;1.37;;;12.60;99.90;;;12.96;nan;101576.72;4912854;29;20701;-66
2023/10/05 01:54:11;;;;;;;3.37;2.13;;;12.60;99.90;;;12.92;nan;101570.03;4915095;29;21068;-66
2023/10/05 01:56:39;;;;;;;2.77;2.30;;;12.60;99.90;;;12.93;nan;101569.06;4916485;29;20669;-66
2023/10/05 01:59:07;;;;;;;5.07;2.30;;;12.70;99.90;;;12.99;nan;101572.13;4913028;29;20654;-67
2023/10/05 02:01:39;;;;;;;3.10;2.70;;;12.70;99.90;;;13.01;nan;101575.47;4916551;29;20748;-66
2023/10/05 02:04:08;;;;;;;3.07;2.07;;;12.70;99.90;;;13.05;nan;101563.88;4928938;29;20638;-67
2023/10/05 02:06:49;;;;;;;2.43;2.07;;;12.70;99.90;;;13.02;nan;101555.34;4916672;29;20661;-66
2023/10/05 02:09:19;;;;;;;2.90;2.60;;;12.70;99.90;;;13.01;nan;101553.69;4923442;29;21192;-66
2023/10/05 02:11:47;;;;;;;11.50;2.87;;;12.70;99.90;;;12.98;nan;101552.13;4916331;29;20630;-66
2023/10/05 02:14:16;;;;;;;3.67;2.27;;;12.70;99.90;;;13.01;nan;101556.31;4909310;29;20638;-66
2023/10/05 02:16:50;;;;;;;5.10;2.60;;;12.70;99.90;;;12.97;nan;101560.06;4908967;29;20668;-67
2023/10/05 02:19:19;;;;;;;5.80;4.00;;;12.70;99.90;;;12.97;nan;101552.19;4914925;29;20641;-67
2023/10/05 02:21:46;;;;;;;3.27;2.77;;;12.70;99.90;;;12.91;nan;101555.22;4914840;29;20638;-66
2023/10/05 02:24:18;;;;;;;4.67;3.13;;;12.60;99.90;;;12.88;nan;101545.81;4915745;29;20642;-67
2023/10/05 02:29:31;;;;;;;4.33;2.27;;;12.60;99.90;;;12.82;nan;101546.22;4913815;29;20662;-67
2023/10/05 02:34:38;;;;;;;4.37;1.90;;;12.50;99.90;;;12.82;nan;101540.16;4911972;29;20649;-67
2023/10/05 02:37:07;;;;;;;4.13;2.43;;;12.50;99.90;;;12.80;nan;101534.19;4914656;29;20661;-66
2023/10/05 02:39:37;;;;;;;2.40;2.00;;;12.50;99.90;;;12.76;nan;101533.53;4925134;29;21239;-67
2023/10/05 02:42:06;;;;;;;2.07;1.80;;;12.50;99.90;;;12.78;nan;101542.13;4904697;29;20645;-66
2023/10/05 02:44:35;;;;;;;3.40;1.93;;;12.50;99.90;;;12.79;nan;101538.56;4914246;29;20704;-66
2023/10/05 02:47:08;;;;;;;5.37;1.67;;;12.50;99.90;;;12.78;nan;101543.88;4926858;29;20662;-66
2023/10/05 02:49:47;;;;;;;2.40;1.63;;;12.50;99.90;;;12.77;nan;101550.09;4914374;29;20653;-66
2023/10/05 02:52:18;;;;;;;4.47;2.00;;;12.50;99.90;;;12.78;nan;101549.13;4912321;29;20677;-66
2023/10/05 02:54:49;;;;;;;2.60;1.87;;;12.50;99.90;;;12.76;nan;101548.41;4915116;29;20634;-66
2023/10/05 02:57:16;;;;;;;3.13;1.47;;;12.50;99.90;;;12.72;nan;101546.91;4914245;29;20677;-67
2023/10/05 02:59:44;;;;;;;2.03;1.57;;;12.50;99.90;;;12.66;nan;101544.72;4911900;29;20662;-67
2023/10/05 03:02:16;;;;;;;2.30;2.10;;;12.40;99.90;;;12.62;nan;101540.63;4915025;29;20638;-66
2023/10/05 03:04:45;;;;;;;1.40;1.20;;;12.40;99.90;;;12.56;nan;101551.50;4914028;29;20642;-66
2023/10/05 03:07:17;;;;;;;1.83;1.60;;;12.30;99.90;;;12.55;nan;101537.56;4913810;29;20662;-65
2023/10/05 03:09:47;;;;;;;2.40;1.57;;;12.30;99.90;;;12.55;nan;101548.03;4915244;29;21079;-66
2023/10/05 03:12:14;;;;;;;2.80;1.23;;;12.30;99.90;;;12.50;nan;101547.50;4913243;29;20641;-67
2023/10/05 03:14:45;;;;;;;2.90;2.00;;;12.20;99.90;;;12.48;nan;101555.44;4913224;29;20642;-66
2023/10/05 03:17:19;;;;;;;1.97;1.50;;;12.20;99.90;;;12.48;nan;101561.66;4908757;29;20669;-66
2023/10/05 03:19:50;;;;;;;10.03;1.80;;;12.20;99.90;;;12.44;nan;101553.13;4913542;29;20665;-66
2023/10/05 03:22:17;;;;;;;3.40;1.80;;;12.20;99.90;;;12.42;nan;101552.41;4912446;29;20638;-66
2023/10/05 03:24:44;;;;;;;1.90;1.70;;;12.10;99.90;;;12.40;nan;101556.91;4908429;29;20653;-67
2023/10/05 03:27:12;;;;;;;1.53;1.47;;;12.10;99.90;;;12.44;nan;101558.38;4913881;29;20666;-66
2023/10/05 03:29:39;;;;;;;7.20;1.87;;;12.20;99.90;;;12.44;nan;101559.22;4913896;29;20664;-67
2023/10/05 03:34:39;;;;;;;5.10;2.10;;;12.20;99.90;;;12.54;nan;101566.47;4913968;29;20646;-68
2023/10/05 03:37:13;;;;;;;2.03;1.90;;;12.30;99.90;;;12.60;nan;101568.69;4910742;29;20657;-67
2023/10/05 03:42:26;;;;;;;4.77;1.73;;;12.40;99.90;;;12.73;nan;101580.88;4911502;29;20682;-67
2023/10/05 03:45:09;;;;;;;3.97;1.80;;;12.40;99.90;;;12.78;nan;101588.41;4903577;29;20634;-67
2023/10/05 03:47:37;;;;;;;1.63;1.60;;;12.50;99.90;;;12.83;nan;101594.19;4913329;29;20661;-67
2023/10/05 03:50:07;;;;;;;1.90;1.73;;;12.50;99.90;;;12.86;nan;101596.63;4906042;29;20704;-67
2023/10/05 03:52:34;;;;;;;2.57;1.63;;;12.60;99.90;;;12.86;nan;101592.19;4913975;29;20646;-67
2023/10/05 03:55:04;;;;;;;2.43;1.90;;;12.60;99.90;;;12.86;nan;101584.34;4906750;29;20639;-67
2023/10/05 03:57:31;;;;;;;3.73;1.80;;;12.60;99.90;;;12.82;nan;101579.44;4923268;29;20744;-66
2023/10/05 03:59:59;;;;;;;2.03;1.50;;;12.50;99.90;;;12.71;nan;101579.31;4912442;29;20685;-66
2023/10/05 04:02:28;;;;;;;2.00;1.57;;;12.50;99.90;;;12.67;nan;101572.59;4913273;29;20638;-67
2023/10/05 04:04:58;;;;;;;2.80;1.87;;;12.40;99.90;;;12.54;nan;101564.72;4909113;29;20642;-66
2023/10/05 04:07:28;;;;;;;1.43;1.33;;;12.30;99.90;;;12.51;nan;101577.13;4913667;29;20668;-67
2023/10/05 04:10:01;;;;;;;2.13;1.93;;;12.30;99.90;;;12.50;nan;101572.84;4912956;29;20638;-66
2023/10/05 04:12:32;;;;;;;1.73;1.60;;;12.20;99.90;;;12.42;nan;101579.41;4909354;29;20649;-66
2023/10/05 04:15:06;;;;;;;1.50;1.40;;;12.20;99.90;;;12.36;nan;101564.13;4924256;29;20689;-65
2023/10/05 04:17:33;;;;;;;4.00;1.77;;;12.10;99.90;;;12.34;nan;101567.75;4910625;29;20729;-67
2023/10/05 04:20:00;;;;;;;2.57;1.70;;;12.10;99.90;;;12.33;nan;101571.31;4910818;29;21097;-67
2023/10/05 04:22:27;;;;;;;2.70;1.77;;;12.00;99.90;;;12.30;nan;101561.91;4913673;29;21191;-66
2023/10/05 04:24:54;;;;;;;3.13;2.07;;;12.00;99.90;;;12.30;nan;101559.28;4910009;29;21553;-66
2023/10/05 04:27:21;;;;;;;7.60;1.67;;;12.00;99.90;;;12.29;nan;101562.81;4914242;29;20661;-67
2023/10/05 04:29:50;;;;;;;1.60;1.50;;;12.00;99.90;;;12.28;nan;101558.53;4911787;29;20650;-66
2023/10/05 04:32:17;;;;;;;1.60;1.50;;;12.00;99.90;;;12.28;nan;101557.69;4913948;29;20630;-66
2023/10/05 04:34:44;;;;;;;1.43;1.33;;;12.00;99.90;;;12.25;nan;101553.50;4912536;29;21217;-67
2023/10/05 04:37:12;;;;;;;3.30;1.57;;;12.00;99.90;;;12.27;nan;101561.22;4911506;29;20666;-67
2023/10/05 04:39:40;;;;;;;4.00;1.67;;;12.00;99.90;;;12.27;nan;101564.69;4910110;29;20642;-66
2023/10/05 04:42:11;;;;;;;1.70;1.60;;;12.00;99.90;;;12.28;nan;101553.31;4911296;29;20656;-66
2023/10/05 04:44:40;;;;;;;4.00;1.80;;;12.00;99.90;;;12.31;nan;101558.31;4913806;29;20642;-67
2023/10/05 04:47:09;;;;;;;1.70;1.60;;;12.00;99.90;;;12.34;nan;101558.13;4908734;29;20661;-67
2023/10/05 04:49:37;;;;;;;1.80;1.60;;;12.10;99.90;;;12.38;nan;101554.38;4915447;29;20645;-65
2023/10/05 04:52:06;;;;;;;4.23;1.80;;;12.10;99.90;;;12.39;nan;101556.03;4908575;29;20626;-67
2023/10/05 04:54:38;;;;;;;1.60;1.50;;;12.10;99.90;;;12.36;nan;101556.25;4907473;29;20650;-66
2023/10/05 04:57:12;;;;;;;3.00;1.80;;;12.10;99.90;;;12.37;nan;101554.50;4908843;29;20673;-66
2023/10/05 04:59:58;;;;;;;2.50;1.80;;;12.10;99.90;;;12.37;nan;101554.50;4914032;29;21060;-67
2023/10/05 05:02:57;;;;;;;2.33;1.90;;;12.10;99.90;;;12.39;nan;101555.22;4914519;29;20644;-66
2023/10/05 05:06:14;;;;;;;2.17;1.63;;;12.10;99.90;;;12.39;nan;101560.47;4916070;29;20661;-66
2023/10/05 05:08:09;;;;;;;3.40;1.43;;;12.10;99.90;;;12.36;nan;101551.03;4912774;29;20672;-67
2023/10/05 05:10:36;;;;;;;1.50;1.37;;;12.10;99.90;;;12.35;nan;101544.09;4910095;29;20649;-66
2023/10/05 05:13:03;;;;;;;2.60;1.57;;;12.10;99.90;;;12.37;nan;101544.84;4927907;29;20649;-67
2023/10/05 05:15:38;;;;;;;2.97;1.57;;;12.10;99.90;;;12.34;nan;101539.81;4910478;29;20653;-67
2023/10/05 05:18:08;;;;;;;1.93;1.40;;;12.10;99.90;;;12.35;nan;101538.06;4913714;29;20677;-67
2023/10/05 05:20:37;;;;;;;3.70;1.77;;;12.10;99.90;;;12.35;nan;101538.06;4916169;29;20669;-67
2023/10/05 05:23:04;;;;;;;1.30;1.20;;;12.10;99.90;;;12.36;nan;101545.78;4912952;29;20713;-67
2023/10/05 05:25:31;;;;;;;1.60;1.50;;;12.10;99.90;;;12.35;nan;101538.88;4914218;29;20645;-67
2023/10/05 05:28:04;;;;;;;3.50;1.73;;;12.10;99.90;;;12.35;nan;101541.47;4916072;29;20649;-67
2023/10/05 05:30:36;;;;;;;2.20;1.73;;;12.10;99.90;;;12.32;nan;101539.09;4914444;29;20650;-66
2023/10/05 05:33:10;;;;;;;1.90;1.43;;;12.10;99.90;;;12.33;nan;101547.75;4915136;29;20979;-67
2023/10/05 05:35:40;;;;;;;3.30;1.63;;;12.10;99.90;;;12.37;nan;101559.72;4914169;29;20638;-66
2023/10/05 05:38:10;;;;;;;1.77;1.67;;;12.10;99.90;;;12.41;nan;101569.06;4912042;29;20675;-65
2023/10/05 05:40:38;;;;;;;1.07;1.07;;;12.10;99.90;;;12.44;nan;101568.84;4911259;29;20677;-67
2023/10/05 05:43:11;;;;;;;3.43;1.80;;;12.20;99.90;;;12.44;nan;101572.31;4907715;29;20638;-67
2023/10/05 05:45:44;;;;;;;6.63;2.00;;;12.20;99.90;;;12.45;nan;101587.09;4914582;29;21029;-67
2023/10/05 05:48:14;;;;;;;6.13;1.90;;;12.20;99.90;;;12.48;nan;101586.03;4926074;29;20737;-66
2023/10/05 05:50:43;;;;;;;1.57;1.47;;;12.20;99.90;;;12.52;nan;101597.16;4912466;29;20642;-67
2023/10/05 05:53:16;;;;;;;1.97;1.50;;;12.30;99.90;;;12.50;nan;101581.53;4914484;29;20649;-66
2023/10/05 05:55:44;;;;;;;3.70;1.93;;;12.30;99.90;;;12.53;nan;101588.34;4911350;29;20737;-66
2023/10/05 05:58:16;;;;;;;2.83;1.60;;;12.30;99.90;;;12.54;nan;101595.28;4906992;29;21220;-65
2023/10/05 06:00:46;;;;;;;2.60;1.67;;;12.30;99.90;;;12.56;nan;101598.63;4915128;29;20688;-66
2023/10/05 06:03:16;;;;;;;1.37;1.27;;;12.30;99.90;;;12.57;nan;101598.53;4913186;29;20665;-65
2023/10/05 06:05:43;;;;;;;2.50;1.30;;;12.30;99.90;;;12.57;nan;101593.28;4913025;29;20692;-67
2023/10/05 06:08:11;;;;;;;1.73;1.63;;;12.40;99.90;;;12.59;nan;101599.25;4915251;29;21239;-67
2023/10/05 06:10:38;;;;;;;9.77;2.20;;;12.40;99.90;;;12.61;nan;101596.53;4913874;29;20708;-66
2023/10/05 06:13:06;;;;;;;1.47;1.47;;;12.40;99.90;;;12.63;nan;101605.97;4904231;29;20653;-65
2023/10/05 06:15:34;;;;;;;2.10;1.90;;;12.40;99.90;;;12.68;nan;101613.53;4909421;29;21032;-67
2023/10/05 06:18:03;;;;;;;2.17;1.30;;;12.40;99.90;;;12.72;nan;101610.63;4907206;29;20669;-66
2023/10/05 06:20:31;;;;;;;2.30;1.50;;;12.50;99.90;;;12.73;nan;101611.47;4914076;29;21608;-66
2023/10/05 06:23:00;;;;;;;1.80;1.70;;;12.50;99.90;;;12.75;nan;101617.44;4905995;29;21058;-68
2023/10/05 06:25:27;;;;;;;1.93;1.70;;;12.50;99.90;;;12.76;nan;101606.84;4905503;29;20644;-67
2023/10/05 06:27:54;;;;;;;1.83;1.57;;;12.50;99.90;;;12.79;nan;101608.44;4911682;29;21233;-66
2023/10/05 06:30:21;;;;;;;1.37;1.27;;;12.50;99.90;;;12.74;nan;101607.88;4911636;29;20630;-66
2023/10/05 06:32:48;;;;;;;1.00;1.00;;;12.50;99.90;;;12.78;nan;101604.13;4911045;29;20652;-67
2023/10/05 06:35:17;;;;;;;1.67;1.57;;;12.50;99.90;;;12.84;nan;101614.22;4922186;29;20642;-66
2023/10/05 06:37:45;;;;;;;2.00;1.60;;;12.60;99.90;;;12.82;nan;101600.41;4913739;29;20906;-66
2023/10/05 06:40:12;;;;;;;1.73;1.60;;;12.60;99.90;;;12.85;nan;101600.19;4911761;29;20641;-65
2023/10/05 06:42:42;;;;;;;3.23;1.90;;;12.60;99.90;;;12.89;nan;101601.66;4925819;29;20641;-66
2023/10/05 06:45:13;;;;;;;1.30;1.30;;;12.60;99.90;;;12.92;nan;101599.69;4913418;29;20637;-65
2023/10/05 06:47:40;;;;;;;3.60;2.03;;;12.70;99.90;;;12.95;nan;101598.63;4910222;29;21274;-65
2023/10/05 06:50:09;;;;;;;1.93;1.73;;;12.70;99.90;;;12.88;nan;101599.97;4912668;29;20645;-66
2023/10/05 06:52:42;;;;;;;1.80;1.70;;;12.70;99.90;;;12.90;nan;101596.31;4914316;29;20706;-67
2023/10/05 06:55:14;;;;;;;3.37;1.90;;;12.60;99.90;;;12.98;nan;101603.66;4911720;29;20646;-65
2023/10/05 06:57:44;;;;;;;2.10;1.47;;;12.70;99.90;;;13.04;nan;101608.50;4925016;29;20662;-65
2023/10/05 07:00:17;;;;;;;1.80;1.53;;;12.80;99.90;;;13.08;nan;101613.47;4914688;29;20626;-67
2023/10/05 07:02:45;;;;;;;2.20;1.67;;;12.80;99.90;;;13.11;nan;101617.66;4914885;29;20682;-66
2023/10/05 07:05:13;;;;;;;1.60;1.50;;;12.80;99.90;;;13.13;nan;101610.53;4912604;29;20638;-67
2023/10/05 07:07:41;;;;;;;2.33;2.03;;;12.90;99.90;;;13.18;nan;101619.75;4912603;29;20699;-66
2023/10/05 07:10:14;;;;;;;2.27;1.90;;;12.90;99.90;;;13.29;nan;101621.66;4918979;29;20650;-66
2023/10/05 07:12:46;;;;;;;5.80;2.03;;;13.00;99.90;;;13.37;nan;101622.00;4911420;29;21250;-67
2023/10/05 07:15:14;;;;;;;1.73;1.63;;;13.10;99.90;;;13.47;nan;101636.16;4913240;29;20642;-66
2023/10/05 07:17:42;;;;;;;2.37;1.90;;;13.10;99.90;;;13.53;nan;101630.47;4911482;29;20677;-66
2023/10/05 07:20:11;;;;;;;2.63;1.70;;;13.20;99.90;;;13.58;nan;101632.78;4914259;29;20646;-66
2023/10/05 07:22:43;;;;;;;1.90;1.80;;;13.30;99.90;;;13.63;nan;101639.38;4910748;29;21057;-67
2023/10/05 07:25:11;;;;;;;2.10;2.00;;;13.30;99.90;;;13.69;nan;101648.63;4925790;29;20630;-66
2023/10/05 07:27:39;;;;;;;3.70;2.23;;;13.40;99.90;;;13.72;nan;101657.13;4910508;29;20684;-66
2023/10/05 07:30:10;;;;;;;2.73;2.47;;;13.40;99.90;;;13.79;nan;101661.00;4925657;29;20645;-65
2023/10/05 07:32:39;;;;;;;6.20;2.50;;;13.50;99.90;;;13.86;nan;101654.38;4912787;29;20653;-66
2023/10/05 07:35:09;;;;;;;2.07;1.90;;;13.50;99.90;;;14.00;nan;101661.28;4899164;29;20649;-66
2023/10/05 07:37:36;;;;;;;2.17;1.97;;;13.70;99.90;;;14.14;nan;101665.59;4912766;29;20665;-67
2023/10/05 07:40:07;;;;;;;1.97;1.67;;;13.80;99.90;;;14.48;nan;101672.78;4911349;29;20650;-66
2023/10/05 07:42:37;;;;;;;4.20;2.23;;;14.10;99.90;;;15.19;nan;101670.09;4911515;29;20677;-67
2023/10/05 07:45:15;;;;;;;4.07;2.17;;;14.80;99.90;;;16.11;nan;101670.88;4906535;29;20717;-67
2023/10/05 07:47:43;;;;;;;3.00;2.17;;;15.60;99.90;;;17.34;nan;101669.56;4910977;29;20673;-66
2023/10/05 07:50:11;;;;;;;2.57;2.30;;;16.90;99.90;;;18.67;nan;101673.78;4922655;29;20639;-67
2023/10/05 07:52:48;;;;;;;5.30;2.17;;;18.20;99.90;;;19.49;nan;101661.78;4926150;29;20641;-67
2023/10/05 07:55:15;;;;;;;2.80;2.00;;;19.20;99.90;;;19.63;nan;101670.16;4905041;29;21391;-67
2023/10/05 07:57:43;;;;;;;2.73;1.93;;;19.40;99.90;;;19.91;nan;101674.50;4910224;29;20677;-66
2023/10/05 08:00:12;;;;;;;2.03;1.90;;;19.60;99.90;;;20.45;nan;101680.81;4910588;29;20650;-65
2023/10/05 08:02:40;;;;;;;2.13;1.93;;;20.20;99.90;;;20.73;nan;101687.75;4911461;29;20678;-67
2023/10/05 08:05:09;;;;;;;3.37;2.37;;;20.60;99.90;;;20.60;nan;101681.97;4908926;29;20649;-67
2023/10/05 08:07:36;;;;;;;2.20;2.00;;;20.60;99.90;;;20.24;nan;101669.66;4911512;29;21283;-66
2023/10/05 08:10:06;;;;;;;5.37;2.47;;;20.20;99.90;;;19.93;nan;101669.88;4910225;29;20660;-67
2023/10/05 08:12:33;;;;;;;6.70;2.20;;;19.90;99.90;;;19.87;nan;101674.94;4911545;29;20650;-68
2023/10/05 08:15:00;;;;;;;4.50;2.40;;;19.80;99.90;;;20.16;nan;101664.22;4899305;29;20642;-65
2023/10/05 08:17:27;;;;;;;4.33;2.40;;;19.90;99.90;;;21.07;nan;101670.22;4905724;29;20689;-67
2023/10/05 08:19:54;;;;;;;3.87;2.07;;;20.60;99.90;;;22.09;nan;101677.38;4908466;29;20653;-68
2023/10/05 08:22:22;;;;;;;3.67;2.23;;;21.60;99.90;;;23.25;nan;101674.66;4912268;29;20698;-67
2023/10/05 08:24:51;;;;;;;6.50;2.83;;;22.90;99.90;;;24.14;nan;101680.66;4909808;29;20638;-66
2023/10/05 08:27:20;;;;;;;5.37;2.53;;;23.90;99.50;;;24.67;nan;101686.06;4914048;29;20658;-66
2023/10/05 08:29:47;;;;;;;4.47;2.50;;;25.30;95.80;;;25.50;nan;101677.25;4910662;29;20645;-67
2023/10/05 08:32:16;;;;;;;4.63;2.30;;;25.40;95.90;;;26.36;nan;101680.16;4912799;29;21033;-66
2023/10/05 08:34:45;;;;;;;2.40;2.20;;;26.30;93.80;;;27.08;nan;101679.09;4907525;29;21439;-65
2023/10/05 08:37:13;;;;;;;5.73;2.53;;;27.00;92.30;;;28.03;nan;101674.84;4905445;29;21025;-67
2023/10/05 08:39:40;;;;;;;4.37;2.27;;;27.90;90.10;;;28.96;nan;101680.31;4912631;29;20642;-67
2023/10/05 08:42:08;;;;;;;3.07;2.70;;;28.80;85.80;;;29.49;nan;101672.28;4904754;29;20664;-66
2023/10/05 08:44:38;;;;;;;3.33;3.00;;;29.50;80.40;;;29.61;nan;101676.81;4918173;29;20635;-67
2023/10/05 08:47:10;;;;;;;3.90;2.87;;;29.80;77.10;;;29.45;nan;101679.94;4909431;29;20662;-67
2023/10/05 08:49:39;;;;;;;3.87;2.50;;;29.70;76.00;;;30.00;nan;101675.91;4912542;29;21025;-67
2023/10/05 08:52:19;;;;;;;2.13;2.00;;;30.00;74.30;;;29.88;nan;101680.28;4912710;29;20634;-67
2023/10/05 08:54:47;;;;;;;2.70;2.27;;;30.10;72.70;;;30.11;nan;101672.56;4911580;29;21207;-67
2023/10/05 08:57:15;;;;;;;3.23;2.40;;;30.10;72.20;;;29.83;nan;101672.03;4911527;29;20685;-67
2023/10/05 08:59:45;;;;;;;3.90;2.70;;;29.90;72.00;;;29.56;nan;101670.41;4912364;29;20638;-67
2023/10/05 09:02:18;;;;;;;3.57;2.30;;;29.70;72.30;;;29.63;nan;101671.22;4908578;29;20774;-66
2023/10/05 09:04:59;;;;;;;3.17;2.87;;;29.70;71.80;;;29.10;nan;101675.78;4903713;29;20630;-67
2023/10/05 09:07:35;;;;;;;3.77;2.80;;;29.40;71.40;;;29.06;nan;101675.38;4912003;29;20658;-66
2023/10/05 09:10:08;;;;;;;3.23;2.47;;;29.20;72.40;;;28.75;nan;101683.16;4912752;29;20630;-67
2023/10/05 09:12:37;;;;;;;4.67;2.53;;;28.90;72.70;;;28.11;nan;101684.59;4923492;29;20700;-67
2023/10/05 09:17:57;;;;;;;3.37;2.70;;;27.40;73.90;;;25.57;nan;101675.53;4910451;29;20749;-66
2023/10/05 09:20:32;;;;;;;;;;;25.90;77.00;;;24.67;nan;101683.41;4912331;29;20538;-66
2023/10/05 09:23:04;;;;;;;;;;;24.90;79.50;;;24.40;nan;101675.88;4911506;29;19978;-67
2023/10/05 09:25:38;;;;;;;;;;;24.40;81.50;;;24.78;nan;101684.03;4913793;29;19934;-67
2023/10/05 09:28:12;;;;;;;;;;;24.60;82.90;;;25.01;nan;101672.34;4926131;29;19934;-66
2023/10/05 09:30:56;;;;;;;;;;;24.80;82.30;;;25.10;nan;101681.13;4913794;29;19923;-67
2023/10/05 09:33:26;;;;;;;;;;;24.80;82.90;;;24.96;nan;101687.25;4915487;29;19923;-67
2023/10/05 09:36:07;;;;;;;;;;;24.70;82.70;;;24.56;nan;101688.28;4915069;29;19923;-67
2023/10/05 09:38:38;;;;;;;;;;;24.30;83.70;;;24.15;nan;101689.50;4913681;29;19923;-67
2023/10/05 09:41:05;;;;;;;;;;;23.80;85.80;;;23.58;nan;101683.44;4915740;29;20061;-65
2023/10/05 09:43:38;;;;;;;;;;;23.30;87.50;;;23.05;nan;101673.31;4909911;29;19923;-66
2023/10/05 09:46:09;;;;;;;;;;;22.80;90.10;;;22.67;nan;101677.44;4916692;29;20297;-66
2023/10/05 09:48:38;;;;;;;;;;;22.30;90.80;;;22.46;nan;101682.34;4915997;29;19927;-66
2023/10/05 09:51:10;;;;;;;;;;;22.10;92.00;;;22.20;nan;101660.31;4912306;29;19930;-66
2023/10/05 09:53:38;;;;;;;;;;;21.90;92.40;;;21.82;nan;101666.97;4906279;29;19927;-67
2023/10/05 09:56:06;;;;;;;;;;;21.60;93.40;;;21.42;nan;101679.94;4919979;29;19931;-67
2023/10/05 09:58:34;;;;;;;;;;;21.20;94.10;;;20.98;nan;101671.09;4914772;29;19930;-68
2023/10/05 10:01:10;;;;;;;;;;;20.80;94.90;;;20.89;nan;101672.84;4915013;29;19930;-67
2023/10/05 10:03:39;;;;;;;;;;;20.60;95.90;;;20.91;nan;101664.75;4929181;29;20379;-67
2023/10/05 10:06:09;;;;;;;;;;;20.50;97.00;;;20.81;nan;101674.56;4913647;29;19923;-66
2023/10/05 10:08:51;;;;;;;;;;;20.40;97.10;;;20.80;nan;101676.41;4915576;29;19942;-66
2023/10/05 10:11:24;;;;;;;;;;;20.40;97.80;;;20.69;nan;101666.03;4927110;29;19931;-66
2023/10/05 10:13:59;;;;;;;;;;;20.30;98.40;;;20.62;nan;101672.91;4911092;29;19923;-66
2023/10/05 10:16:27;;;;;;;;;;;20.20;99.20;;;20.64;nan;101672.75;4907415;29;19929;-66
2023/10/05 10:19:19;;;;;;;;;;;20.20;99.70;;;20.73;nan;101677.16;4909592;29;20421;-67
2023/10/05 10:21:57;;;;;;;;;;;20.30;99.90;;;20.90;nan;101665.72;4902463;29;19943;-66
2023/10/05 10:24:28;;;;;;;;;;;20.40;99.90;;;21.10;nan;101669.91;4914419;29;20029;-67
2023/10/05 10:27:08;;;;;;;;;;;20.60;99.90;;;21.14;nan;101673.94;4911776;29;19932;-68
2023/10/05 10:29:53;;;;;;;;;;;20.70;99.70;;;21.03;nan;101668.84;4913252;29;19927;-66
2023/10/05 10:32:32;;;;;;;;;;;20.60;99.20;;;20.88;nan;101684.44;4914928;29;19923;-66
2023/10/05 10:35:26;;;;;;;;;;;20.50;99.50;;;20.81;nan;101679.88;4915527;29;19926;-67
2023/10/05 10:37:51;;;;;;;;;;;20.30;99.70;;;20.67;nan;101683.06;4913802;29;20122;-67
2023/10/05 10:42:51;;;;;;;;;;;20.20;98.90;;;20.50;nan;101668.81;4912338;29;19934;-64
2023/10/05 10:45:28;;;;;;;;;;;20.10;98.10;;;20.53;nan;101670.31;4907983;29;20676;-66
2023/10/05 10:47:58;;;;;;;;;;;20.10;98.00;;;20.52;nan;101669.50;4915053;29;19923;-67
2023/10/05 10:50:31;;;;;;;;;;;20.10;97.20;;;20.49;nan;101668.94;4913126;29;19946;-67
2023/10/05 10:52:58;;;;;;;;;;;20.00;97.10;;;20.44;nan;101677.34;4926760;29;19947;-67
2023/10/05 10:55:32;;;;;;;;;;;20.00;97.10;;;20.34;nan;101681.84;4911054;29;19941;-67
2023/10/05 10:58:04;;;;;;;;;;;19.90;97.40;;;20.25;nan;101677.47;4920960;29;19923;-66
2023/10/05 11:03:15;;;;;;;;;;;19.70;97.60;;;20.10;nan;101678.91;4905727;29;19923;-66
2023/10/05 11:05:47;;;;;;;;;;;19.70;97.90;;;20.01;nan;101677.13;4913589;29;20342;-66
2023/10/05 11:08:20;;;;;;;;;;;19.60;98.10;;;20.02;nan;101665.53;4915091;29;19923;-66
2023/10/05 11:11:06;;;;;;;;;;;19.60;97.90;;;20.07;nan;101664.13;4913653;29;19927;-64
2023/10/05 11:13:39;;;;;;;;;;;19.60;97.90;;;20.11;nan;101652.25;4913006;29;19933;-67
2023/10/05 11:16:09;;;;;;;;;;;19.60;97.90;;;20.16;nan;101667.72;4914939;29;19922;-67
2023/10/05 11:18:50;;;;;;;;;;;19.70;98.00;;;20.12;nan;101658.38;4912965;29;19922;-66
2023/10/05 11:21:24;;;;;;;;;;;19.70;98.00;;;20.11;nan;101660.19;4929659;29;19930;-67